sensor_id;sensor_type;location;lat;lon;timestamp;temperature;humidity
68128;SHT30;54931;52.098;21.006;2023-02-26T00:01:30;1.28;79.94
68128;SHT30;54931;52.098;21.006;2023-02-26T00:04:01;1.27;79.78
68128;SHT30;54931;52.098;21.006;2023-02-26T00:06:34;1.27;79.85
68128;SHT30;54931;52.098;21.006;2023-02-26T00:09:06;1.25;80.04
68128;SHT30;54931;52.098;21.006;2023-02-26T00:11:37;1.25;80.24
68128;SHT30;54931;52.098;21.006;2023-02-26T00:14:07;1.25;80.17
68128;SHT30;54931;52.098;21.006;2023-02-26T00:16:40;1.25;80.16
68128;SHT30;54931;52.098;21.006;2023-02-26T00:19:11;1.24;80.04
68128;SHT30;54931;52.098;21.006;2023-02-26T00:21:39;1.25;79.70
68128;SHT30;54931;52.098;21.006;2023-02-26T00:24:07;1.29;79.90
68128;SHT30;54931;52.098;21.006;2023-02-26T00:26:35;1.33;79.96
68128;SHT30;54931;52.098;21.006;2023-02-26T00:29:03;1.40;79.95
68128;SHT30;54931;52.098;21.006;2023-02-26T00:31:32;1.45;79.71
68128;SHT30;54931;52.098;21.006;2023-02-26T00:34:00;1.50;79.60
68128;SHT30;54931;52.098;21.006;2023-02-26T00:36:34;1.51;79.69
68128;SHT30;54931;52.098;21.006;2023-02-26T00:39:14;1.52;79.69
68128;SHT30;54931;52.098;21.006;2023-02-26T00:42:18;1.52;79.56
68128;SHT30;54931;52.098;21.006;2023-02-26T00:44:46;1.52;79.33
68128;SHT30;54931;52.098;21.006;2023-02-26T00:50:00;1.52;78.89
68128;SHT30;54931;52.098;21.006;2023-02-26T00:52:48;1.50;78.70
68128;SHT30;54931;52.098;21.006;2023-02-26T00:55:43;1.48;78.57
68128;SHT30;54931;52.098;21.006;2023-02-26T00:58:11;1.46;78.18
68128;SHT30;54931;52.098;21.006;2023-02-26T01:00:39;1.43;77.48
68128;SHT30;54931;52.098;21.006;2023-02-26T01:03:07;1.38;76.66
68128;SHT30;54931;52.098;21.006;2023-02-26T01:05:37;1.34;75.97
68128;SHT30;54931;52.098;21.006;2023-02-26T01:08:11;1.31;76.01
68128;SHT30;54931;52.098;21.006;2023-02-26T01:10:51;1.28;75.79
68128;SHT30;54931;52.098;21.006;2023-02-26T01:13:19;1.26;76.31
68128;SHT30;54931;52.098;21.006;2023-02-26T01:15:49;1.24;75.92
68128;SHT30;54931;52.098;21.006;2023-02-26T01:18:27;1.22;75.23
68128;SHT30;54931;52.098;21.006;2023-02-26T01:21:40;1.20;75.31
68128;SHT30;54931;52.098;21.006;2023-02-26T01:24:18;1.18;74.97
68128;SHT30;54931;52.098;21.006;2023-02-26T01:26:50;1.18;75.22
68128;SHT30;54931;52.098;21.006;2023-02-26T01:29:19;1.16;74.93
68128;SHT30;54931;52.098;21.006;2023-02-26T01:35:08;1.14;75.16
68128;SHT30;54931;52.098;21.006;2023-02-26T01:37:28;1.12;74.34
68128;SHT30;54931;52.098;21.006;2023-02-26T01:43:38;1.09;74.43
68128;SHT30;54931;52.098;21.006;2023-02-26T01:49:38;1.09;74.42
68128;SHT30;54931;52.098;21.006;2023-02-26T01:53:00;1.09;74.38
68128;SHT30;54931;52.098;21.006;2023-02-26T01:55:18;1.09;74.39
68128;SHT30;54931;52.098;21.006;2023-02-26T01:57:53;1.09;73.94
68128;SHT30;54931;52.098;21.006;2023-02-26T02:00:24;1.09;73.57
68128;SHT30;54931;52.098;21.006;2023-02-26T02:02:52;1.08;73.44
68128;SHT30;54931;52.098;21.006;2023-02-26T02:05:23;1.07;73.78
68128;SHT30;54931;52.098;21.006;2023-02-26T02:08:00;1.07;73.38
68128;SHT30;54931;52.098;21.006;2023-02-26T02:10:28;1.08;73.28
68128;SHT30;54931;52.098;21.006;2023-02-26T02:13:04;1.08;73.46
68128;SHT30;54931;52.098;21.006;2023-02-26T02:19:07;1.08;73.69
68128;SHT30;54931;52.098;21.006;2023-02-26T02:31:51;1.04;73.63
68128;SHT30;54931;52.098;21.006;2023-02-26T02:37:42;1.00;73.55
68128;SHT30;54931;52.098;21.006;2023-02-26T02:40:30;1.00;73.31
68128;SHT30;54931;52.098;21.006;2023-02-26T02:43:05;0.99;73.14
68128;SHT30;54931;52.098;21.006;2023-02-26T02:45:47;0.99;73.26
68128;SHT30;54931;52.098;21.006;2023-02-26T02:51:06;0.98;72.92
68128;SHT30;54931;52.098;21.006;2023-02-26T02:56:29;0.96;72.85
68128;SHT30;54931;52.098;21.006;2023-02-26T03:02:21;0.95;72.17
68128;SHT30;54931;52.098;21.006;2023-02-26T03:05:04;0.94;72.40
68128;SHT30;54931;52.098;21.006;2023-02-26T03:07:34;0.94;72.39
68128;SHT30;54931;52.098;21.006;2023-02-26T03:10:10;0.94;72.21
68128;SHT30;54931;52.098;21.006;2023-02-26T03:12:39;0.93;72.48
68128;SHT30;54931;52.098;21.006;2023-02-26T03:15:07;0.94;72.71
68128;SHT30;54931;52.098;21.006;2023-02-26T03:20:55;0.97;72.74
68128;SHT30;54931;52.098;21.006;2023-02-26T03:24:01;0.98;72.92
68128;SHT30;54931;52.098;21.006;2023-02-26T03:26:50;0.98;72.95
68128;SHT30;54931;52.098;21.006;2023-02-26T03:38:35;0.99;72.95
68128;SHT30;54931;52.098;21.006;2023-02-26T03:41:34;0.98;73.04
68128;SHT30;54931;52.098;21.006;2023-02-26T03:44:15;0.97;72.92
68128;SHT30;54931;52.098;21.006;2023-02-26T03:47:31;0.98;73.09
68128;SHT30;54931;52.098;21.006;2023-02-26T03:50:07;0.97;72.94
68128;SHT30;54931;52.098;21.006;2023-02-26T03:52:43;0.96;72.86
68128;SHT30;54931;52.098;21.006;2023-02-26T03:58:19;0.96;73.06
68128;SHT30;54931;52.098;21.006;2023-02-26T04:00:51;0.96;72.99
68128;SHT30;54931;52.098;21.006;2023-02-26T04:03:43;0.95;73.07
68128;SHT30;54931;52.098;21.006;2023-02-26T04:06:18;0.96;73.21
68128;SHT30;54931;52.098;21.006;2023-02-26T04:08:47;0.96;73.19
68128;SHT30;54931;52.098;21.006;2023-02-26T04:11:17;0.97;73.13
68128;SHT30;54931;52.098;21.006;2023-02-26T04:13:48;0.97;72.84
68128;SHT30;54931;52.098;21.006;2023-02-26T04:16:16;0.97;72.75
68128;SHT30;54931;52.098;21.006;2023-02-26T04:18:45;0.98;72.84
68128;SHT30;54931;52.098;21.006;2023-02-26T04:21:13;0.97;72.85
68128;SHT30;54931;52.098;21.006;2023-02-26T04:23:46;0.98;72.91
68128;SHT30;54931;52.098;21.006;2023-02-26T04:26:15;0.98;72.91
68128;SHT30;54931;52.098;21.006;2023-02-26T04:28:43;0.98;72.68
68128;SHT30;54931;52.098;21.006;2023-02-26T04:31:11;0.98;72.73
68128;SHT30;54931;52.098;21.006;2023-02-26T04:33:39;0.99;73.02
68128;SHT30;54931;52.098;21.006;2023-02-26T04:36:07;1.00;73.02
68128;SHT30;54931;52.098;21.006;2023-02-26T04:38:36;0.99;72.95
68128;SHT30;54931;52.098;21.006;2023-02-26T04:41:04;1.00;72.90
68128;SHT30;54931;52.098;21.006;2023-02-26T04:43:33;0.99;72.73
68128;SHT30;54931;52.098;21.006;2023-02-26T04:46:02;0.97;72.79
68128;SHT30;54931;52.098;21.006;2023-02-26T04:48:30;0.96;72.99
68128;SHT30;54931;52.098;21.006;2023-02-26T04:50:58;0.97;72.73
68128;SHT30;54931;52.098;21.006;2023-02-26T04:53:26;0.96;72.70
68128;SHT30;54931;52.098;21.006;2023-02-26T04:55:53;0.95;72.88
68128;SHT30;54931;52.098;21.006;2023-02-26T04:58:21;0.97;72.96
68128;SHT30;54931;52.098;21.006;2023-02-26T05:00:49;0.95;73.05
68128;SHT30;54931;52.098;21.006;2023-02-26T05:03:22;0.93;73.09
68128;SHT30;54931;52.098;21.006;2023-02-26T05:05:50;0.90;73.31
68128;SHT30;54931;52.098;21.006;2023-02-26T05:08:17;0.88;73.54
68128;SHT30;54931;52.098;21.006;2023-02-26T05:10:45;0.86;73.61
68128;SHT30;54931;52.098;21.006;2023-02-26T05:13:13;0.84;73.57
68128;SHT30;54931;52.098;21.006;2023-02-26T05:15:41;0.82;73.72
68128;SHT30;54931;52.098;21.006;2023-02-26T05:18:09;0.80;73.78
68128;SHT30;54931;52.098;21.006;2023-02-26T05:20:36;0.80;74.00
68128;SHT30;54931;52.098;21.006;2023-02-26T05:23:04;0.79;74.14
68128;SHT30;54931;52.098;21.006;2023-02-26T05:25:32;0.77;74.20
68128;SHT30;54931;52.098;21.006;2023-02-26T05:28:00;0.78;73.97
68128;SHT30;54931;52.098;21.006;2023-02-26T05:30:28;0.76;73.55
68128;SHT30;54931;52.098;21.006;2023-02-26T05:32:56;0.74;73.54
68128;SHT30;54931;52.098;21.006;2023-02-26T05:35:24;0.73;73.36
68128;SHT30;54931;52.098;21.006;2023-02-26T05:37:51;0.71;73.31
68128;SHT30;54931;52.098;21.006;2023-02-26T05:40:19;0.69;73.35
68128;SHT30;54931;52.098;21.006;2023-02-26T05:42:47;0.66;73.32
68128;SHT30;54931;52.098;21.006;2023-02-26T05:45:15;0.62;73.42
68128;SHT30;54931;52.098;21.006;2023-02-26T05:47:43;0.59;73.67
68128;SHT30;54931;52.098;21.006;2023-02-26T05:50:11;0.57;73.83
68128;SHT30;54931;52.098;21.006;2023-02-26T05:52:39;0.55;73.98
68128;SHT30;54931;52.098;21.006;2023-02-26T05:55:07;0.54;74.14
68128;SHT30;54931;52.098;21.006;2023-02-26T05:57:36;0.54;74.24
68128;SHT30;54931;52.098;21.006;2023-02-26T06:00:05;0.53;74.19
68128;SHT30;54931;52.098;21.006;2023-02-26T06:02:35;0.54;74.32
68128;SHT30;54931;52.098;21.006;2023-02-26T06:05:03;0.55;74.47
68128;SHT30;54931;52.098;21.006;2023-02-26T06:07:32;0.55;74.65
68128;SHT30;54931;52.098;21.006;2023-02-26T06:10:00;0.56;74.49
68128;SHT30;54931;52.098;21.006;2023-02-26T06:12:28;0.55;74.25
68128;SHT30;54931;52.098;21.006;2023-02-26T06:14:56;0.54;74.04
68128;SHT30;54931;52.098;21.006;2023-02-26T06:17:24;0.54;74.02
68128;SHT30;54931;52.098;21.006;2023-02-26T06:19:51;0.52;73.96
68128;SHT30;54931;52.098;21.006;2023-02-26T06:22:19;0.50;73.98
68128;SHT30;54931;52.098;21.006;2023-02-26T06:24:47;0.46;73.50
68128;SHT30;54931;52.098;21.006;2023-02-26T06:27:15;0.43;72.39
68128;SHT30;54931;52.098;21.006;2023-02-26T06:29:43;0.34;70.05
68128;SHT30;54931;52.098;21.006;2023-02-26T06:32:11;0.26;69.92
68128;SHT30;54931;52.098;21.006;2023-02-26T06:34:39;0.17;69.50
68128;SHT30;54931;52.098;21.006;2023-02-26T06:37:07;0.12;69.10
68128;SHT30;54931;52.098;21.006;2023-02-26T06:39:34;0.07;68.82
68128;SHT30;54931;52.098;21.006;2023-02-26T06:42:02;0.04;69.12
68128;SHT30;54931;52.098;21.006;2023-02-26T06:44:31;0.03;68.91
68128;SHT30;54931;52.098;21.006;2023-02-26T06:46:58;0.01;68.15
68128;SHT30;54931;52.098;21.006;2023-02-26T06:49:26;0.00;68.79
68128;SHT30;54931;52.098;21.006;2023-02-26T06:51:54;-0.01;69.07
68128;SHT30;54931;52.098;21.006;2023-02-26T06:54:22;-0.01;69.37
68128;SHT30;54931;52.098;21.006;2023-02-26T06:56:50;-0.02;69.34
68128;SHT30;54931;52.098;21.006;2023-02-26T06:59:18;-0.02;69.30
68128;SHT30;54931;52.098;21.006;2023-02-26T07:01:47;-0.03;69.43
68128;SHT30;54931;52.098;21.006;2023-02-26T07:04:15;-0.02;69.40
68128;SHT30;54931;52.098;21.006;2023-02-26T07:06:43;-0.02;68.87
68128;SHT30;54931;52.098;21.006;2023-02-26T07:09:11;-0.02;68.59
68128;SHT30;54931;52.098;21.006;2023-02-26T07:11:39;-0.03;68.88
68128;SHT30;54931;52.098;21.006;2023-02-26T07:14:07;-0.03;69.03
68128;SHT30;54931;52.098;21.006;2023-02-26T07:16:35;-0.02;68.97
68128;SHT30;54931;52.098;21.006;2023-02-26T07:19:03;0.00;69.06
68128;SHT30;54931;52.098;21.006;2023-02-26T07:21:30;0.00;68.98
68128;SHT30;54931;52.098;21.006;2023-02-26T07:23:58;0.01;68.96
68128;SHT30;54931;52.098;21.006;2023-02-26T07:26:26;0.01;68.25
68128;SHT30;54931;52.098;21.006;2023-02-26T07:28:54;0.02;68.60
68128;SHT30;54931;52.098;21.006;2023-02-26T07:31:22;0.05;68.27
68128;SHT30;54931;52.098;21.006;2023-02-26T07:33:50;0.08;68.36
68128;SHT30;54931;52.098;21.006;2023-02-26T07:36:18;0.11;67.93
68128;SHT30;54931;52.098;21.006;2023-02-26T07:38:46;0.17;67.72
68128;SHT30;54931;52.098;21.006;2023-02-26T07:41:14;0.23;67.67
68128;SHT30;54931;52.098;21.006;2023-02-26T07:43:42;0.28;66.77
68128;SHT30;54931;52.098;21.006;2023-02-26T07:46:10;0.32;65.89
68128;SHT30;54931;52.098;21.006;2023-02-26T07:48:37;0.36;65.57
68128;SHT30;54931;52.098;21.006;2023-02-26T07:51:05;0.42;65.63
68128;SHT30;54931;52.098;21.006;2023-02-26T07:53:34;0.45;63.73
68128;SHT30;54931;52.098;21.006;2023-02-26T07:56:02;0.49;63.91
68128;SHT30;54931;52.098;21.006;2023-02-26T07:58:30;0.54;63.74
68128;SHT30;54931;52.098;21.006;2023-02-26T08:00:58;0.60;63.50
68128;SHT30;54931;52.098;21.006;2023-02-26T08:03:26;0.62;63.05
68128;SHT30;54931;52.098;21.006;2023-02-26T08:05:54;0.64;63.59
68128;SHT30;54931;52.098;21.006;2023-02-26T08:08:22;0.68;63.71
68128;SHT30;54931;52.098;21.006;2023-02-26T08:10:50;0.70;64.04
68128;SHT30;54931;52.098;21.006;2023-02-26T08:13:18;0.70;63.35
68128;SHT30;54931;52.098;21.006;2023-02-26T08:15:47;0.70;63.27
68128;SHT30;54931;52.098;21.006;2023-02-26T08:18:15;0.68;62.99
68128;SHT30;54931;52.098;21.006;2023-02-26T08:20:42;0.68;63.06
68128;SHT30;54931;52.098;21.006;2023-02-26T08:23:10;0.66;63.04
68128;SHT30;54931;52.098;21.006;2023-02-26T08:25:39;0.64;62.26
68128;SHT30;54931;52.098;21.006;2023-02-26T08:28:06;0.62;62.47
68128;SHT30;54931;52.098;21.006;2023-02-26T08:30:34;0.60;62.47
68128;SHT30;54931;52.098;21.006;2023-02-26T08:33:02;0.58;61.91
68128;SHT30;54931;52.098;21.006;2023-02-26T08:35:30;0.57;62.18
68128;SHT30;54931;52.098;21.006;2023-02-26T08:37:58;0.56;62.87
68128;SHT30;54931;52.098;21.006;2023-02-26T08:40:26;0.59;63.44
68128;SHT30;54931;52.098;21.006;2023-02-26T08:42:54;0.63;62.96
68128;SHT30;54931;52.098;21.006;2023-02-26T08:45:22;0.65;62.54
68128;SHT30;54931;52.098;21.006;2023-02-26T08:47:50;0.68;62.84
68128;SHT30;54931;52.098;21.006;2023-02-26T08:50:19;0.72;63.13
68128;SHT30;54931;52.098;21.006;2023-02-26T08:52:48;0.80;63.77
68128;SHT30;54931;52.098;21.006;2023-02-26T08:55:15;0.86;63.79
68128;SHT30;54931;52.098;21.006;2023-02-26T08:57:44;0.90;63.30
68128;SHT30;54931;52.098;21.006;2023-02-26T09:00:12;0.91;62.60
68128;SHT30;54931;52.098;21.006;2023-02-26T09:02:44;0.92;62.61
68128;SHT30;54931;52.098;21.006;2023-02-26T09:05:13;0.93;63.39
68128;SHT30;54931;52.098;21.006;2023-02-26T09:07:42;0.94;63.07
68128;SHT30;54931;52.098;21.006;2023-02-26T09:10:12;0.92;62.27
68128;SHT30;54931;52.098;21.006;2023-02-26T09:12:41;0.89;60.96
68128;SHT30;54931;52.098;21.006;2023-02-26T09:15:10;0.85;61.32
68128;SHT30;54931;52.098;21.006;2023-02-26T09:17:39;0.82;61.81
68128;SHT30;54931;52.098;21.006;2023-02-26T09:20:08;0.81;62.02
68128;SHT30;54931;52.098;21.006;2023-02-26T09:22:37;0.81;62.57
68128;SHT30;54931;52.098;21.006;2023-02-26T09:25:06;0.80;62.44
68128;SHT30;54931;52.098;21.006;2023-02-26T09:27:35;0.78;62.47
68128;SHT30;54931;52.098;21.006;2023-02-26T09:30:03;0.75;62.29
68128;SHT30;54931;52.098;21.006;2023-02-26T09:32:33;0.74;61.97
68128;SHT30;54931;52.098;21.006;2023-02-26T09:35:01;0.72;61.89
68128;SHT30;54931;52.098;21.006;2023-02-26T09:37:30;0.72;62.11
68128;SHT30;54931;52.098;21.006;2023-02-26T09:39:59;0.73;61.74
68128;SHT30;54931;52.098;21.006;2023-02-26T09:45:38;0.71;61.74
68128;SHT30;54931;52.098;21.006;2023-02-26T09:48:11;0.73;62.35
68128;SHT30;54931;52.098;21.006;2023-02-26T09:50:46;0.77;62.83
68128;SHT30;54931;52.098;21.006;2023-02-26T09:53:29;0.81;62.29
68128;SHT30;54931;52.098;21.006;2023-02-26T09:56:10;0.83;61.84
68128;SHT30;54931;52.098;21.006;2023-02-26T09:58:45;0.87;61.69
68128;SHT30;54931;52.098;21.006;2023-02-26T10:01:26;0.90;61.58
68128;SHT30;54931;52.098;21.006;2023-02-26T10:04:10;0.92;61.75
68128;SHT30;54931;52.098;21.006;2023-02-26T10:07:19;0.96;61.87
68128;SHT30;54931;52.098;21.006;2023-02-26T10:10:14;0.99;61.83
68128;SHT30;54931;52.098;21.006;2023-02-26T10:12:58;0.99;61.55
68128;SHT30;54931;52.098;21.006;2023-02-26T10:15:31;0.98;61.46
68128;SHT30;54931;52.098;21.006;2023-02-26T10:18:25;0.99;61.66
68128;SHT30;54931;52.098;21.006;2023-02-26T10:23:59;0.99;62.06
68128;SHT30;54931;52.098;21.006;2023-02-26T10:26:44;0.99;62.52
68128;SHT30;54931;52.098;21.006;2023-02-26T10:29:44;1.00;62.67
68128;SHT30;54931;52.098;21.006;2023-02-26T10:32:37;1.00;62.88
68128;SHT30;54931;52.098;21.006;2023-02-26T10:35:17;0.98;63.04
68128;SHT30;54931;52.098;21.006;2023-02-26T10:38:10;0.98;62.71
68128;SHT30;54931;52.098;21.006;2023-02-26T10:40:49;0.94;63.06
68128;SHT30;54931;52.098;21.006;2023-02-26T10:43:38;0.93;63.43
68128;SHT30;54931;52.098;21.006;2023-02-26T10:51:55;0.95;64.41
68128;SHT30;54931;52.098;21.006;2023-02-26T10:54:35;0.96;64.45
68128;SHT30;54931;52.098;21.006;2023-02-26T10:57:24;0.95;64.62
68128;SHT30;54931;52.098;21.006;2023-02-26T11:00:01;0.93;64.44
68128;SHT30;54931;52.098;21.006;2023-02-26T11:02:39;0.91;64.56
68128;SHT30;54931;52.098;21.006;2023-02-26T11:05:15;0.90;64.66
68128;SHT30;54931;52.098;21.006;2023-02-26T11:07:49;0.90;64.53
68128;SHT30;54931;52.098;21.006;2023-02-26T11:10:24;0.89;64.44
68128;SHT30;54931;52.098;21.006;2023-02-26T11:13:20;0.86;64.99
68128;SHT30;54931;52.098;21.006;2023-02-26T11:15:53;0.80;64.53
68128;SHT30;54931;52.098;21.006;2023-02-26T11:18:25;0.75;63.88
68128;SHT30;54931;52.098;21.006;2023-02-26T11:21:07;0.73;63.88
68128;SHT30;54931;52.098;21.006;2023-02-26T11:27:14;0.78;63.20
68128;SHT30;54931;52.098;21.006;2023-02-26T11:29:55;0.83;62.76
68128;SHT30;54931;52.098;21.006;2023-02-26T11:32:31;0.86;62.00
68128;SHT30;54931;52.098;21.006;2023-02-26T11:35:02;0.90;61.76
68128;SHT30;54931;52.098;21.006;2023-02-26T11:37:37;0.97;61.55
68128;SHT30;54931;52.098;21.006;2023-02-26T11:40:17;1.06;62.01
68128;SHT30;54931;52.098;21.006;2023-02-26T11:42:57;1.19;61.34
68128;SHT30;54931;52.098;21.006;2023-02-26T11:45:30;1.31;60.54
68128;SHT30;54931;52.098;21.006;2023-02-26T11:48:05;1.43;59.45
68128;SHT30;54931;52.098;21.006;2023-02-26T11:50:41;1.52;59.37
68128;SHT30;54931;52.098;21.006;2023-02-26T11:53:16;1.62;58.43
68128;SHT30;54931;52.098;21.006;2023-02-26T11:56:11;1.66;57.67
68128;SHT30;54931;52.098;21.006;2023-02-26T11:58:53;1.67;59.44
68128;SHT30;54931;52.098;21.006;2023-02-26T12:01:25;1.67;61.42
68128;SHT30;54931;52.098;21.006;2023-02-26T12:03:57;1.66;61.43
68128;SHT30;54931;52.098;21.006;2023-02-26T12:06:27;1.64;60.76
68128;SHT30;54931;52.098;21.006;2023-02-26T12:08:56;1.67;61.43
68128;SHT30;54931;52.098;21.006;2023-02-26T12:20:32;1.66;61.64
68128;SHT30;54931;52.098;21.006;2023-02-26T12:32:02;1.46;61.85
68128;SHT30;54931;52.098;21.006;2023-02-26T12:41:23;1.49;62.85
68128;SHT30;54931;52.098;21.006;2023-02-26T13:02:53;1.80;62.40
68128;SHT30;54931;52.098;21.006;2023-02-26T13:05:54;1.78;62.72
68128;SHT30;54931;52.098;21.006;2023-02-26T13:08:42;1.78;62.03
68128;SHT30;54931;52.098;21.006;2023-02-26T13:20:17;1.82;62.65
68128;SHT30;54931;52.098;21.006;2023-02-26T13:22:52;1.81;61.49
68128;SHT30;54931;52.098;21.006;2023-02-26T13:28:43;1.76;61.03
68128;SHT30;54931;52.098;21.006;2023-02-26T13:34:29;1.88;59.32
68128;SHT30;54931;52.098;21.006;2023-02-26T13:48:26;1.98;58.20
68128;SHT30;54931;52.098;21.006;2023-02-26T13:51:51;1.94;58.66
68128;SHT30;54931;52.098;21.006;2023-02-26T14:00:08;2.00;58.80
68128;SHT30;54931;52.098;21.006;2023-02-26T14:02:56;2.09;58.58
68128;SHT30;54931;52.098;21.006;2023-02-26T14:19:30;2.41;58.49
68128;SHT30;54931;52.098;21.006;2023-02-26T14:22:13;2.48;59.04
68128;SHT30;54931;52.098;21.006;2023-02-26T14:27:35;2.64;58.45
68128;SHT30;54931;52.098;21.006;2023-02-26T14:41:04;2.70;58.30
68128;SHT30;54931;52.098;21.006;2023-02-26T14:43:49;2.67;58.26
68128;SHT30;54931;52.098;21.006;2023-02-26T14:46:43;2.66;58.41
68128;SHT30;54931;52.098;21.006;2023-02-26T14:52:25;2.57;58.28
68128;SHT30;54931;52.098;21.006;2023-02-26T14:55:37;2.53;58.18
68128;SHT30;54931;52.098;21.006;2023-02-26T15:01:12;2.36;58.26
68128;SHT30;54931;52.098;21.006;2023-02-26T15:13:05;2.10;59.93
68128;SHT30;54931;52.098;21.006;2023-02-26T15:19:08;1.98;60.56
68128;SHT30;54931;52.098;21.006;2023-02-26T15:25:43;1.90;61.04
68128;SHT30;54931;52.098;21.006;2023-02-26T15:28:11;1.87;61.67
68128;SHT30;54931;52.098;21.006;2023-02-26T15:30:50;1.84;61.58
68128;SHT30;54931;52.098;21.006;2023-02-26T15:33:20;1.82;62.02
68128;SHT30;54931;52.098;21.006;2023-02-26T15:35:52;1.79;62.17
68128;SHT30;54931;52.098;21.006;2023-02-26T15:38:23;1.78;62.39
68128;SHT30;54931;52.098;21.006;2023-02-26T15:40:53;1.76;62.52
68128;SHT30;54931;52.098;21.006;2023-02-26T15:43:30;1.74;62.78
68128;SHT30;54931;52.098;21.006;2023-02-26T15:45:58;1.69;62.98
68128;SHT30;54931;52.098;21.006;2023-02-26T15:51:03;1.59;63.40
68128;SHT30;54931;52.098;21.006;2023-02-26T15:53:44;1.53;63.45
68128;SHT30;54931;52.098;21.006;2023-02-26T15:56:18;1.47;63.73
68128;SHT30;54931;52.098;21.006;2023-02-26T15:58:53;1.41;63.85
68128;SHT30;54931;52.098;21.006;2023-02-26T16:01:27;1.36;63.99
68128;SHT30;54931;52.098;21.006;2023-02-26T16:03:58;1.30;64.26
68128;SHT30;54931;52.098;21.006;2023-02-26T16:06:31;1.23;64.55
68128;SHT30;54931;52.098;21.006;2023-02-26T16:09:28;1.13;64.94
68128;SHT30;54931;52.098;21.006;2023-02-26T16:12:03;1.05;65.25
68128;SHT30;54931;52.098;21.006;2023-02-26T16:14:40;0.95;65.49
68128;SHT30;54931;52.098;21.006;2023-02-26T16:17:22;0.85;65.77
68128;SHT30;54931;52.098;21.006;2023-02-26T16:19:55;0.76;65.98
68128;SHT30;54931;52.098;21.006;2023-02-26T16:22:38;0.67;66.19
68128;SHT30;54931;52.098;21.006;2023-02-26T16:25:22;0.57;66.48
68128;SHT30;54931;52.098;21.006;2023-02-26T16:27:58;0.49;66.74
68128;SHT30;54931;52.098;21.006;2023-02-26T16:30:35;0.44;66.98
68128;SHT30;54931;52.098;21.006;2023-02-26T16:33:09;0.39;67.28
68128;SHT30;54931;52.098;21.006;2023-02-26T16:36:03;0.33;67.50
68128;SHT30;54931;52.098;21.006;2023-02-26T16:38:44;0.30;67.69
68128;SHT30;54931;52.098;21.006;2023-02-26T16:41:15;0.28;67.83
68128;SHT30;54931;52.098;21.006;2023-02-26T16:43:52;0.28;68.02
68128;SHT30;54931;52.098;21.006;2023-02-26T16:49:20;0.28;68.40
68128;SHT30;54931;52.098;21.006;2023-02-26T16:51:56;0.27;68.50
68128;SHT30;54931;52.098;21.006;2023-02-26T16:54:29;0.25;68.70
68128;SHT30;54931;52.098;21.006;2023-02-26T16:57:10;0.24;68.90
68128;SHT30;54931;52.098;21.006;2023-02-26T16:59:47;0.24;69.13
68128;SHT30;54931;52.098;21.006;2023-02-26T17:02:21;0.21;69.43
68128;SHT30;54931;52.098;21.006;2023-02-26T17:04:56;0.16;69.78
68128;SHT30;54931;52.098;21.006;2023-02-26T17:07:31;0.12;69.95
68128;SHT30;54931;52.098;21.006;2023-02-26T17:10:07;0.09;70.10
68128;SHT30;54931;52.098;21.006;2023-02-26T17:12:51;0.05;70.22
68128;SHT30;54931;52.098;21.006;2023-02-26T17:15:31;0.02;70.32
68128;SHT30;54931;52.098;21.006;2023-02-26T17:18:03;-0.00;70.53
68128;SHT30;54931;52.098;21.006;2023-02-26T17:20:32;-0.02;70.58
68128;SHT30;54931;52.098;21.006;2023-02-26T17:23:04;-0.06;70.74
68128;SHT30;54931;52.098;21.006;2023-02-26T17:25:37;-0.09;71.14
68128;SHT30;54931;52.098;21.006;2023-02-26T17:28:11;-0.11;71.37
68128;SHT30;54931;52.098;21.006;2023-02-26T17:30:53;-0.12;71.54
68128;SHT30;54931;52.098;21.006;2023-02-26T17:33:22;-0.12;71.68
68128;SHT30;54931;52.098;21.006;2023-02-26T17:35:50;-0.10;71.78
68128;SHT30;54931;52.098;21.006;2023-02-26T17:38:27;-0.08;72.00
68128;SHT30;54931;52.098;21.006;2023-02-26T17:40:56;-0.06;72.12
68128;SHT30;54931;52.098;21.006;2023-02-26T17:43:24;-0.03;72.28
68128;SHT30;54931;52.098;21.006;2023-02-26T17:45:53;-0.00;72.35
68128;SHT30;54931;52.098;21.006;2023-02-26T17:48:22;0.01;72.44
68128;SHT30;54931;52.098;21.006;2023-02-26T17:50:52;0.04;72.60
68128;SHT30;54931;52.098;21.006;2023-02-26T17:53:22;0.07;72.59
68128;SHT30;54931;52.098;21.006;2023-02-26T17:55:59;0.10;72.65
68128;SHT30;54931;52.098;21.006;2023-02-26T17:58:29;0.13;72.71
68128;SHT30;54931;52.098;21.006;2023-02-26T18:01:00;0.16;72.75
68128;SHT30;54931;52.098;21.006;2023-02-26T18:03:30;0.20;72.80
68128;SHT30;54931;52.098;21.006;2023-02-26T18:05:59;0.24;72.78
68128;SHT30;54931;52.098;21.006;2023-02-26T18:08:30;0.27;72.80
68128;SHT30;54931;52.098;21.006;2023-02-26T18:11:01;0.29;72.72
68128;SHT30;54931;52.098;21.006;2023-02-26T18:13:30;0.33;72.70
68128;SHT30;54931;52.098;21.006;2023-02-26T18:15:59;0.35;72.70
68128;SHT30;54931;52.098;21.006;2023-02-26T18:18:29;0.36;72.73
68128;SHT30;54931;52.098;21.006;2023-02-26T18:20:59;0.38;72.71
68128;SHT30;54931;52.098;21.006;2023-02-26T18:23:27;0.39;72.72
68128;SHT30;54931;52.098;21.006;2023-02-26T18:25:55;0.42;72.42
68128;SHT30;54931;52.098;21.006;2023-02-26T18:28:24;0.46;72.37
68128;SHT30;54931;52.098;21.006;2023-02-26T18:30:55;0.48;72.48
68128;SHT30;54931;52.098;21.006;2023-02-26T18:33:24;0.49;72.48
68128;SHT30;54931;52.098;21.006;2023-02-26T18:35:53;0.49;72.50
68128;SHT30;54931;52.098;21.006;2023-02-26T18:38:26;0.49;72.38
68128;SHT30;54931;52.098;21.006;2023-02-26T18:40:55;0.51;72.13
68128;SHT30;54931;52.098;21.006;2023-02-26T18:43:24;0.52;72.09
68128;SHT30;54931;52.098;21.006;2023-02-26T18:45:52;0.51;71.78
68128;SHT30;54931;52.098;21.006;2023-02-26T18:48:22;0.54;71.52
68128;SHT30;54931;52.098;21.006;2023-02-26T18:50:51;0.56;71.40
68128;SHT30;54931;52.098;21.006;2023-02-26T18:53:20;0.57;71.22
68128;SHT30;54931;52.098;21.006;2023-02-26T18:55:50;0.59;71.05
68128;SHT30;54931;52.098;21.006;2023-02-26T18:58:20;0.60;71.00
68128;SHT30;54931;52.098;21.006;2023-02-26T19:00:48;0.61;71.05
68128;SHT30;54931;52.098;21.006;2023-02-26T19:03:17;0.61;71.11
68128;SHT30;54931;52.098;21.006;2023-02-26T19:05:54;0.61;71.20
68128;SHT30;54931;52.098;21.006;2023-02-26T19:08:27;0.61;71.08
68128;SHT30;54931;52.098;21.006;2023-02-26T19:10:56;0.61;70.96
68128;SHT30;54931;52.098;21.006;2023-02-26T19:13:25;0.62;70.87
68128;SHT30;54931;52.098;21.006;2023-02-26T19:15:53;0.65;70.78
68128;SHT30;54931;52.098;21.006;2023-02-26T19:18:22;0.67;70.50
68128;SHT30;54931;52.098;21.006;2023-02-26T19:20:51;0.69;70.01
68128;SHT30;54931;52.098;21.006;2023-02-26T19:23:20;0.73;69.55
68128;SHT30;54931;52.098;21.006;2023-02-26T19:25:51;0.76;68.96
68128;SHT30;54931;52.098;21.006;2023-02-26T19:28:20;0.80;68.66
68128;SHT30;54931;52.098;21.006;2023-02-26T19:30:48;0.82;68.24